Woody Richerson — WDF9621 — position and weather

sailwx.info

Track history (hours):
 
Tides and Currents Weather Stations Pressure Air Temp Water Temp Dewpoint Dewpoint Depression Visibility Wind Speed Wind Dir Waves Ship Positions

Woody Richerson

Owner: Florida Marine, LLC, Mandeville, LA. More information available from US FCC via Universal Licensing System and Coast Guard Vessel Documentation Center.

Last reported at 2015-Feb-28 04:24 UTC. Time now 2015-Mar-07 01:42 UTC.
Position N 29°28' W 094°51'.

Length 27 m.

Type: Other ship. MMSI: 367507070.

Date/timePositionNaut miles runAvg speedWind from/ knotsBaromVisibWave heightAir tempDewpointWater temp
2015-Feb-28 04:24N 29°28' W 094°51'6 6.8
2015-Feb-28 03:33N 29°33' W 094°55'7 6.7
2015-Feb-28 02:34N 29°39' W 094°58'6 6.2
2015-Feb-28 01:33N 29°44' W 095°03'8 1.2
2015-Feb-27 19:10N 29°45' W 095°12'0 0.0
2015-Feb-27 18:34N 29°45' W 095°12'0 0.0
2015-Feb-27 17:34N 29°45' W 095°12'0 0.0
2015-Feb-27 16:33N 29°45' W 095°12'0 0.0
2015-Feb-27 15:34N 29°45' W 095°12'0 0.0
2015-Feb-27 14:34N 29°45' W 095°12'1 0.1
2015-Feb-27 04:22N 29°45' W 095°10'4 4.7
2015-Feb-27 03:33N 29°45' W 095°06'3 3.3
2015-Feb-27 02:32N 29°47' W 095°04'0 0.0
2015-Feb-27 01:33N 29°47' W 095°04'0 0.0
2015-Feb-27 00:23N 29°47' W 095°04'2 0.7
2015-Feb-26 21:15N 29°46' W 095°06'0 0.0
2015-Feb-26 18:24N 29°46' W 095°06'0 0.0
2015-Feb-26 17:11N 29°46' W 095°06'0 0.0
2015-Feb-26 16:21N 29°46' W 095°06'0 0.0
2015-Feb-26 15:32N 29°46' W 095°06'0 0.0
2015-Feb-26 14:28N 29°46' W 095°06'0 0.0
2015-Feb-26 06:15N 29°46' W 095°06'0 0.0
2015-Feb-26 03:24N 29°46' W 095°06'0 0.0
2015-Feb-26 00:13N 29°46' W 095°06'0 0.0
2015-Feb-25 22:33N 29°46' W 095°06'0 0.0
2015-Feb-25 21:29N 29°46' W 095°06'0 0.0
2015-Feb-25 20:18N 29°46' W 095°06'0 0.1
2015-Feb-25 19:34N 29°46' W 095°06'0 0.0
2015-Feb-25 18:30N 29°46' W 095°06'0 0.0
2015-Feb-25 17:33N 29°46' W 095°06'0 0.0
2015-Feb-25 16:28N 29°46' W 095°06'0 0.0
2015-Feb-25 15:17N 29°46' W 095°06'0 0.0
2015-Feb-25 14:31N 29°46' W 095°06'0 0.0
2015-Feb-25 13:30N 29°46' W 095°06'0 0.0
2015-Feb-25 12:33N 29°46' W 095°06'0 0.0
2015-Feb-25 11:34N 29°46' W 095°06'0 0.0
2015-Feb-25 10:34N 29°46' W 095°06'0 0.0
2015-Feb-25 09:33N 29°46' W 095°06'0 0.0
2015-Feb-25 08:34N 29°46' W 095°06'0 0.0
2015-Feb-25 07:33N 29°46' W 095°06'0 0.0
2015-Feb-25 06:34N 29°46' W 095°06'0 0.0
2015-Feb-25 05:33N 29°46' W 095°06'0 0.0
2015-Feb-25 04:34N 29°46' W 095°06'0 0.0
2015-Feb-25 03:34N 29°46' W 095°06'0 0.0
2015-Feb-25 02:32N 29°46' W 095°06'0 0.0
2015-Feb-25 01:33N 29°46' W 095°06'0 0.0
2015-Feb-25 00:34N 29°46' W 095°06'0 0.0
2015-Feb-24 23:33N 29°46' W 095°06'0 0.0
2015-Feb-24 22:33N 29°46' W 095°06'0 0.0
2015-Feb-24 21:33N 29°46' W 095°06'0 0.0
2015-Feb-24 20:33N 29°46' W 095°06'0 0.0
2015-Feb-24 19:33N 29°46' W 095°06'0 0.0
2015-Feb-24 18:31N 29°46' W 095°06'0 0.0
2015-Feb-24 17:33N 29°46' W 095°06'0 0.0
2015-Feb-24 16:34N 29°46' W 095°06'0 0.0
2015-Feb-24 15:33N 29°46' W 095°06'0 0.0
2015-Feb-24 14:33N 29°46' W 095°06'0 0.0
2015-Feb-24 13:33N 29°46' W 095°06'0 0.0
2015-Feb-24 12:33N 29°46' W 095°06'0 0.0
2015-Feb-24 11:33N 29°46' W 095°06'0 0.0
2015-Feb-24 10:33N 29°46' W 095°06'0 0.0
2015-Feb-24 09:33N 29°46' W 095°06'0 0.0
2015-Feb-24 08:33N 29°46' W 095°06'0 0.0
2015-Feb-24 07:33N 29°46' W 095°06'0 0.0
2015-Feb-24 06:34N 29°46' W 095°06'0 0.0
2015-Feb-24 05:33N 29°46' W 095°06'0 0.0
2015-Feb-24 04:33N 29°46' W 095°06'0 0.0
2015-Feb-24 03:33N 29°46' W 095°06'0 0.0
2015-Feb-24 02:33N 29°46' W 095°06'0 0.0
2015-Feb-24 01:33N 29°46' W 095°06'0 0.0
2015-Feb-24 00:33N 29°46' W 095°06'0 0.0
2015-Feb-23 23:33N 29°46' W 095°06'0 0.0
2015-Feb-23 22:33N 29°46' W 095°06'0 0.0
2015-Feb-23 21:32N 29°46' W 095°06'0 0.0
2015-Feb-23 20:33N 29°46' W 095°06'0 0.0
2015-Feb-23 19:32N 29°46' W 095°06'0 0.0
2015-Feb-23 17:33N 29°46' W 095°06'0 0.0
2015-Feb-23 11:20N 29°46' W 095°06'0 0.0
2015-Feb-23 02:30N 29°46' W 095°06'0 0.0
2015-Feb-23 01:29N 29°46' W 095°06'0 0.0
2015-Feb-23 00:32N 29°46' W 095°06'0 0.0
2015-Feb-22 23:34N 29°46' W 095°06'0 0.0
2015-Feb-22 22:34N 29°46' W 095°06'0 0.0
2015-Feb-22 21:33N 29°46' W 095°06'0 0.0
2015-Feb-22 20:33N 29°46' W 095°06'0 0.0
2015-Feb-22 19:33N 29°46' W 095°06'0 0.0
2015-Feb-22 18:34N 29°46' W 095°06'0 0.0
2015-Feb-22 17:31N 29°46' W 095°06'0 0.0
2015-Feb-22 16:31N 29°46' W 095°06'0 0.0
2015-Feb-22 15:33N 29°46' W 095°06'0 0.0
2015-Feb-22 14:32N 29°46' W 095°06'0 0.0
2015-Feb-22 13:28N 29°46' W 095°06'0 0.0
2015-Feb-22 02:10N 29°46' W 095°06'2 3.8
2015-Feb-22 01:33N 29°47' W 095°04'4 4.1
2015-Feb-22 00:33N 29°44' W 095°07'1 0.9
2015-Feb-21 23:33N 29°44' W 095°08'0 0.0
2015-Feb-21 22:34N 29°44' W 095°08'0 0.0
2015-Feb-21 21:33N 29°44' W 095°08'0 0.0
2015-Feb-21 20:34N 29°44' W 095°08'0 0.0
2015-Feb-21 19:34N 29°44' W 095°08'0 0.0
2015-Feb-21 18:33N 29°44' W 095°08'0 0.0
2015-Feb-21 17:33N 29°44' W 095°08'0 0.0
2015-Feb-21 16:34N 29°44' W 095°08'0 0.0
2015-Feb-21 15:34N 29°44' W 095°08'0 0.0
2015-Feb-21 14:33N 29°44' W 095°08'0 0.0
2015-Feb-21 13:34N 29°44' W 095°08'0 0.0
2015-Feb-21 12:34N 29°44' W 095°08'0 0.0
2015-Feb-21 11:33N 29°44' W 095°08'0 0.0
2015-Feb-21 10:34N 29°44' W 095°08'1 0.6
2015-Feb-21 09:33N 29°44' W 095°07'4 4.1
2015-Feb-21 08:33N 29°47' W 095°04'0 0.3
2015-Feb-21 07:33N 29°47' W 095°04'0 0.0
2015-Feb-21 06:13N 29°47' W 095°04'0 0.0
2015-Feb-21 05:27N 29°47' W 095°04'2 2.2
2015-Feb-21 04:25N 29°46' W 095°06'0 0.0
2015-Feb-21 03:18N 29°46' W 095°06'0 0.0
2015-Feb-21 02:31N 29°46' W 095°06'0 0.0
2015-Feb-21 01:33N 29°46' W 095°06'0 0.0
2015-Feb-21 00:32N 29°46' W 095°06'0 0.0
2015-Feb-20 23:31N 29°46' W 095°06'0 0.3
2015-Feb-20 22:33N 29°46' W 095°06'2 1.9
2015-Feb-20 21:33N 29°44' W 095°07'3 3.2
2015-Feb-20 20:32N 29°47' W 095°05'0 0.1
2015-Feb-20 19:32N 29°47' W 095°05'0 0.0
2015-Feb-20 18:17N 29°47' W 095°05'0 0.0
2015-Feb-20 17:31N 29°47' W 095°05'1 1.5
2015-Feb-20 16:33N 29°46' W 095°06'2 2.1
2015-Feb-20 15:34N 29°45' W 095°04'9 8.7
2015-Feb-20 14:34N 29°38' W 094°58'10 9.7
2015-Feb-20 13:33N 29°30' W 094°52'2 0.4
2015-Feb-20 07:33N 29°28' W 094°51'7 6.7
2015-Feb-20 06:33N 29°33' W 094°55'7 7.0
2015-Feb-20 05:33N 29°40' W 094°59'6 6.0
2015-Feb-20 04:33N 29°44' W 095°03'2 2.5
2015-Feb-20 03:33N 29°46' W 095°05'0 0.1
2015-Feb-20 02:33N 29°46' W 095°05'1 1.2
2015-Feb-20 01:33N 29°46' W 095°06'2 2.4
2015-Feb-20 00:33N 29°47' W 095°04'1 0.6
2015-Feb-19 23:33N 29°47' W 095°04'2 1.7
2015-Feb-19 22:33N 29°46' W 095°06'0 0.0
2015-Feb-19 21:33N 29°46' W 095°06'0 0.0
2015-Feb-19 20:33N 29°46' W 095°06'0 0.0
2015-Feb-19 19:34N 29°46' W 095°06'0 0.0
2015-Feb-19 18:33N 29°46' W 095°06'0 0.0
2015-Feb-19 17:33N 29°46' W 095°06'0 0.4
2015-Feb-19 16:33N 29°46' W 095°06'2 2.4
2015-Feb-19 15:33N 29°47' W 095°04'2 2.3
2015-Feb-19 14:32N 29°46' W 095°06'2 2.1
2015-Feb-19 13:34N 29°47' W 095°04'0 0.0
2015-Feb-19 12:34N 29°47' W 095°04'0 0.2
2015-Feb-19 11:33N 29°47' W 095°04'0 0.0
2015-Feb-19 10:34N 29°47' W 095°04'1 0.8
2015-Feb-19 09:32N 29°46' W 095°05'2 1.9
2015-Feb-19 08:34N 29°46' W 095°07'4 3.7
2015-Feb-19 07:33N 29°45' W 095°11'5 5.2
2015-Feb-19 06:33N 29°44' W 095°17'0 0.0
2015-Feb-19 05:34N 29°44' W 095°17'0 0.0
2015-Feb-19 04:33N 29°44' W 095°17'0 0.0
2015-Feb-19 03:33N 29°44' W 095°17'0 0.0
2015-Feb-19 02:33N 29°44' W 095°17'0 0.0
2015-Feb-19 01:33N 29°44' W 095°17'0 0.0
2015-Feb-19 00:33N 29°44' W 095°17'0 0.0
2015-Feb-18 23:34N 29°44' W 095°17'0 0.0
2015-Feb-18 22:34N 29°44' W 095°17'0 0.1
2015-Feb-18 21:33N 29°44' W 095°17'6 5.6
2015-Feb-18 20:33N 29°45' W 095°10'4 3.8
2015-Feb-18 19:34N 29°46' W 095°06'1 1.1
2015-Feb-18 18:34N 29°45' W 095°06'0 0.0
2015-Feb-18 17:32N 29°45' W 095°06'0 0.0
2015-Feb-18 16:30N 29°45' W 095°06'0 0.0
2015-Feb-18 15:33N 29°45' W 095°06'0 0.0
2015-Feb-18 14:33N 29°45' W 095°06'0 0.0
2015-Feb-18 13:34N 29°45' W 095°06'0 0.0
2015-Feb-18 12:33N 29°45' W 095°06'0 0.0
2015-Feb-18 11:29N 29°45' W 095°06'0 0.0
2015-Feb-18 10:31N 29°45' W 095°06'0 0.0
2015-Feb-18 09:33N 29°45' W 095°06'0 0.0
2015-Feb-18 08:33N 29°45' W 095°06'0 0.0
2015-Feb-18 07:34N 29°45' W 095°06'0 0.0
2015-Feb-18 06:33N 29°45' W 095°06'0 0.0
2015-Feb-18 05:33N 29°45' W 095°06'0 0.0
2015-Feb-18 04:33N 29°45' W 095°06'  
Track history (hours):
 
Tides and Currents Weather Stations Pressure Air Temp Water Temp Dewpoint Dewpoint Depression Visibility Wind Speed Wind Dir Waves Ship Positions

Woody Richerson

Owner: Florida Marine, LLC, Mandeville, LA. More information available from US FCC via Universal Licensing System and Coast Guard Vessel Documentation Center.

Last reported at 2015-Feb-28 04:24 UTC. Time now 2015-Mar-07 01:42 UTC.
Position N 29°28' W 094°51'.

Length 27 m.

Type: Other ship. MMSI: 367507070.

Date/timePositionNaut miles runAvg speedWind from/ knotsBaromVisibWave heightAir tempDewpointWater temp
2015-Feb-28 04:24N 29°28' W 094°51'6 6.8
2015-Feb-28 03:33N 29°33' W 094°55'7 6.7
2015-Feb-28 02:34N 29°39' W 094°58'6 6.2
2015-Feb-28 01:33N 29°44' W 095°03'8 1.2
2015-Feb-27 19:10N 29°45' W 095°12'0 0.0
2015-Feb-27 18:34N 29°45' W 095°12'0 0.0
2015-Feb-27 17:34N 29°45' W 095°12'0 0.0
2015-Feb-27 16:33N 29°45' W 095°12'0 0.0
2015-Feb-27 15:34N 29°45' W 095°12'0 0.0
2015-Feb-27 14:34N 29°45' W 095°12'1 0.1
2015-Feb-27 04:22N 29°45' W 095°10'4 4.7
2015-Feb-27 03:33N 29°45' W 095°06'3 3.3
2015-Feb-27 02:32N 29°47' W 095°04'0 0.0
2015-Feb-27 01:33N 29°47' W 095°04'0 0.0
2015-Feb-27 00:23N 29°47' W 095°04'2 0.7
2015-Feb-26 21:15N 29°46' W 095°06'0 0.0
2015-Feb-26 18:24N 29°46' W 095°06'0 0.0
2015-Feb-26 17:11N 29°46' W 095°06'0 0.0
2015-Feb-26 16:21N 29°46' W 095°06'0 0.0
2015-Feb-26 15:32N 29°46' W 095°06'0 0.0
2015-Feb-26 14:28N 29°46' W 095°06'0 0.0
2015-Feb-26 06:15N 29°46' W 095°06'0 0.0
2015-Feb-26 03:24N 29°46' W 095°06'0 0.0
2015-Feb-26 00:13N 29°46' W 095°06'0 0.0
2015-Feb-25 22:33N 29°46' W 095°06'0 0.0
2015-Feb-25 21:29N 29°46' W 095°06'0 0.0
2015-Feb-25 20:18N 29°46' W 095°06'0 0.1
2015-Feb-25 19:34N 29°46' W 095°06'0 0.0
2015-Feb-25 18:30N 29°46' W 095°06'0 0.0
2015-Feb-25 17:33N 29°46' W 095°06'0 0.0
2015-Feb-25 16:28N 29°46' W 095°06'0 0.0
2015-Feb-25 15:17N 29°46' W 095°06'0 0.0
2015-Feb-25 14:31N 29°46' W 095°06'0 0.0
2015-Feb-25 13:30N 29°46' W 095°06'0 0.0
2015-Feb-25 12:33N 29°46' W 095°06'0 0.0
2015-Feb-25 11:34N 29°46' W 095°06'0 0.0
2015-Feb-25 10:34N 29°46' W 095°06'0 0.0
2015-Feb-25 09:33N 29°46' W 095°06'0 0.0
2015-Feb-25 08:34N 29°46' W 095°06'0 0.0
2015-Feb-25 07:33N 29°46' W 095°06'0 0.0
2015-Feb-25 06:34N 29°46' W 095°06'0 0.0
2015-Feb-25 05:33N 29°46' W 095°06'0 0.0
2015-Feb-25 04:34N 29°46' W 095°06'0 0.0
2015-Feb-25 03:34N 29°46' W 095°06'0 0.0
2015-Feb-25 02:32N 29°46' W 095°06'0 0.0
2015-Feb-25 01:33N 29°46' W 095°06'0 0.0
2015-Feb-25 00:34N 29°46' W 095°06'0 0.0
2015-Feb-24 23:33N 29°46' W 095°06'0 0.0
2015-Feb-24 22:33N 29°46' W 095°06'0 0.0
2015-Feb-24 21:33N 29°46' W 095°06'0 0.0
2015-Feb-24 20:33N 29°46' W 095°06'0 0.0
2015-Feb-24 19:33N 29°46' W 095°06'0 0.0
2015-Feb-24 18:31N 29°46' W 095°06'0 0.0
2015-Feb-24 17:33N 29°46' W 095°06'0 0.0
2015-Feb-24 16:34N 29°46' W 095°06'0 0.0
2015-Feb-24 15:33N 29°46' W 095°06'0 0.0
2015-Feb-24 14:33N 29°46' W 095°06'0 0.0
2015-Feb-24 13:33N 29°46' W 095°06'0 0.0
2015-Feb-24 12:33N 29°46' W 095°06'0 0.0
2015-Feb-24 11:33N 29°46' W 095°06'0 0.0
2015-Feb-24 10:33N 29°46' W 095°06'0 0.0
2015-Feb-24 09:33N 29°46' W 095°06'0 0.0
2015-Feb-24 08:33N 29°46' W 095°06'0 0.0
2015-Feb-24 07:33N 29°46' W 095°06'0 0.0
2015-Feb-24 06:34N 29°46' W 095°06'0 0.0
2015-Feb-24 05:33N 29°46' W 095°06'0 0.0
2015-Feb-24 04:33N 29°46' W 095°06'0 0.0
2015-Feb-24 03:33N 29°46' W 095°06'0 0.0
2015-Feb-24 02:33N 29°46' W 095°06'0 0.0
2015-Feb-24 01:33N 29°46' W 095°06'0 0.0
2015-Feb-24 00:33N 29°46' W 095°06'0 0.0
2015-Feb-23 23:33N 29°46' W 095°06'0 0.0
2015-Feb-23 22:33N 29°46' W 095°06'0 0.0
2015-Feb-23 21:32N 29°46' W 095°06'0 0.0
2015-Feb-23 20:33N 29°46' W 095°06'0 0.0
2015-Feb-23 19:32N 29°46' W 095°06'0 0.0
2015-Feb-23 17:33N 29°46' W 095°06'0 0.0
2015-Feb-23 11:20N 29°46' W 095°06'0 0.0
2015-Feb-23 02:30N 29°46' W 095°06'0 0.0
2015-Feb-23 01:29N 29°46' W 095°06'0 0.0
2015-Feb-23 00:32N 29°46' W 095°06'0 0.0
2015-Feb-22 23:34N 29°46' W 095°06'0 0.0
2015-Feb-22 22:34N 29°46' W 095°06'0 0.0
2015-Feb-22 21:33N 29°46' W 095°06'0 0.0
2015-Feb-22 20:33N 29°46' W 095°06'0 0.0
2015-Feb-22 19:33N 29°46' W 095°06'0 0.0
2015-Feb-22 18:34N 29°46' W 095°06'0 0.0
2015-Feb-22 17:31N 29°46' W 095°06'0 0.0
2015-Feb-22 16:31N 29°46' W 095°06'0 0.0
2015-Feb-22 15:33N 29°46' W 095°06'0 0.0
2015-Feb-22 14:32N 29°46' W 095°06'0 0.0
2015-Feb-22 13:28N 29°46' W 095°06'0 0.0
2015-Feb-22 02:10N 29°46' W 095°06'2 3.8
2015-Feb-22 01:33N 29°47' W 095°04'4 4.1
2015-Feb-22 00:33N 29°44' W 095°07'1 0.9
2015-Feb-21 23:33N 29°44' W 095°08'0 0.0
2015-Feb-21 22:34N 29°44' W 095°08'0 0.0
2015-Feb-21 21:33N 29°44' W 095°08'0 0.0
2015-Feb-21 20:34N 29°44' W 095°08'0 0.0
2015-Feb-21 19:34N 29°44' W 095°08'0 0.0
2015-Feb-21 18:33N 29°44' W 095°08'0 0.0
2015-Feb-21 17:33N 29°44' W 095°08'0 0.0
2015-Feb-21 16:34N 29°44' W 095°08'0 0.0
2015-Feb-21 15:34N 29°44' W 095°08'0 0.0
2015-Feb-21 14:33N 29°44' W 095°08'0 0.0
2015-Feb-21 13:34N 29°44' W 095°08'0 0.0
2015-Feb-21 12:34N 29°44' W 095°08'0 0.0
2015-Feb-21 11:33N 29°44' W 095°08'0 0.0
2015-Feb-21 10:34N 29°44' W 095°08'1 0.6
2015-Feb-21 09:33N 29°44' W 095°07'4 4.1
2015-Feb-21 08:33N 29°47' W 095°04'0 0.3
2015-Feb-21 07:33N 29°47' W 095°04'0 0.0
2015-Feb-21 06:13N 29°47' W 095°04'0 0.0
2015-Feb-21 05:27N 29°47' W 095°04'2 2.2
2015-Feb-21 04:25N 29°46' W 095°06'0 0.0
2015-Feb-21 03:18N 29°46' W 095°06'0 0.0
2015-Feb-21 02:31N 29°46' W 095°06'0 0.0
2015-Feb-21 01:33N 29°46' W 095°06'0 0.0
2015-Feb-21 00:32N 29°46' W 095°06'0 0.0
2015-Feb-20 23:31N 29°46' W 095°06'0 0.3
2015-Feb-20 22:33N 29°46' W 095°06'2 1.9
2015-Feb-20 21:33N 29°44' W 095°07'3 3.2
2015-Feb-20 20:32N 29°47' W 095°05'0 0.1
2015-Feb-20 19:32N 29°47' W 095°05'0 0.0
2015-Feb-20 18:17N 29°47' W 095°05'0 0.0
2015-Feb-20 17:31N 29°47' W 095°05'1 1.5
2015-Feb-20 16:33N 29°46' W 095°06'2 2.1
2015-Feb-20 15:34N 29°45' W 095°04'9 8.7
2015-Feb-20 14:34N 29°38' W 094°58'10 9.7
2015-Feb-20 13:33N 29°30' W 094°52'2 0.4
2015-Feb-20 07:33N 29°28' W 094°51'7 6.7
2015-Feb-20 06:33N 29°33' W 094°55'7 7.0
2015-Feb-20 05:33N 29°40' W 094°59'6 6.0
2015-Feb-20 04:33N 29°44' W 095°03'2 2.5
2015-Feb-20 03:33N 29°46' W 095°05'0 0.1
2015-Feb-20 02:33N 29°46' W 095°05'1 1.2
2015-Feb-20 01:33N 29°46' W 095°06'2 2.4
2015-Feb-20 00:33N 29°47' W 095°04'1 0.6
2015-Feb-19 23:33N 29°47' W 095°04'2 1.7
2015-Feb-19 22:33N 29°46' W 095°06'0 0.0
2015-Feb-19 21:33N 29°46' W 095°06'0 0.0
2015-Feb-19 20:33N 29°46' W 095°06'0 0.0
2015-Feb-19 19:34N 29°46' W 095°06'0 0.0
2015-Feb-19 18:33N 29°46' W 095°06'0 0.0
2015-Feb-19 17:33N 29°46' W 095°06'0 0.4
2015-Feb-19 16:33N 29°46' W 095°06'2 2.4
2015-Feb-19 15:33N 29°47' W 095°04'2 2.3
2015-Feb-19 14:32N 29°46' W 095°06'2 2.1
2015-Feb-19 13:34N 29°47' W 095°04'0 0.0
2015-Feb-19 12:34N 29°47' W 095°04'0 0.2
2015-Feb-19 11:33N 29°47' W 095°04'0 0.0
2015-Feb-19 10:34N 29°47' W 095°04'1 0.8
2015-Feb-19 09:32N 29°46' W 095°05'2 1.9
2015-Feb-19 08:34N 29°46' W 095°07'4 3.7
2015-Feb-19 07:33N 29°45' W 095°11'5 5.2
2015-Feb-19 06:33N 29°44' W 095°17'0 0.0
2015-Feb-19 05:34N 29°44' W 095°17'0 0.0
2015-Feb-19 04:33N 29°44' W 095°17'0 0.0
2015-Feb-19 03:33N 29°44' W 095°17'0 0.0
2015-Feb-19 02:33N 29°44' W 095°17'0 0.0
2015-Feb-19 01:33N 29°44' W 095°17'0 0.0
2015-Feb-19 00:33N 29°44' W 095°17'0 0.0
2015-Feb-18 23:34N 29°44' W 095°17'0 0.0
2015-Feb-18 22:34N 29°44' W 095°17'0 0.1
2015-Feb-18 21:33N 29°44' W 095°17'6 5.6
2015-Feb-18 20:33N 29°45' W 095°10'4 3.8
2015-Feb-18 19:34N 29°46' W 095°06'1 1.1
2015-Feb-18 18:34N 29°45' W 095°06'0 0.0
2015-Feb-18 17:32N 29°45' W 095°06'0 0.0
2015-Feb-18 16:30N 29°45' W 095°06'0 0.0
2015-Feb-18 15:33N 29°45' W 095°06'0 0.0
2015-Feb-18 14:33N 29°45' W 095°06'0 0.0
2015-Feb-18 13:34N 29°45' W 095°06'0 0.0
2015-Feb-18 12:33N 29°45' W 095°06'0 0.0
2015-Feb-18 11:29N 29°45' W 095°06'0 0.0
2015-Feb-18 10:31N 29°45' W 095°06'0 0.0
2015-Feb-18 09:33N 29°45' W 095°06'0 0.0
2015-Feb-18 08:33N 29°45' W 095°06'0 0.0
2015-Feb-18 07:34N 29°45' W 095°06'0 0.0
2015-Feb-18 06:33N 29°45' W 095°06'0 0.0
2015-Feb-18 05:33N 29°45' W 095°06'0 0.0
2015-Feb-18 04:33N 29°45' W 095°06'  

Dump ship's entire track history